Time;durP1;ratioP1;P1;durP2;ratioP2;P2;SDS_P1;SDS_P2;PMS_P1;PMS_P2;Temp;Humidity;BMP_temperature;BMP_pressure;BME280_temperature;BME280_humidity;BME280_pressure;Samples;Min_cycle;Max_cycle;Signal;HPM_P1;HPM_P2
2023/07/02 00:01:30;;;;;;;7.17;5.20;;;;;;;16.05;100.00;99629.56;4997206;28;20253;-84
2023/07/02 00:03:58;;;;;;;8.63;4.50;;;;;;;16.07;100.00;99651.38;4996666;28;20261;-83
2023/07/02 00:06:25;;;;;;;6.00;3.97;;;;;;;16.13;100.00;99649.34;5016506;28;20227;-85
2023/07/02 00:08:51;;;;;;;4.50;4.20;;;;;;;16.19;100.00;99660.38;5016764;28;20219;-82
2023/07/02 00:11:17;;;;;;;5.03;4.43;;;;;;;16.07;100.00;99663.69;5017045;28;20274;-85
2023/07/02 00:13:44;;;;;;;5.87;4.50;;;;;;;16.15;100.00;99668.53;5009027;28;20199;-84
2023/07/02 00:16:10;;;;;;;4.80;4.17;;;;;;;16.12;100.00;99669.56;5016767;28;20207;-86
2023/07/02 00:18:36;;;;;;;4.30;3.90;;;;;;;16.22;100.00;99654.94;5017201;28;20241;-86
2023/07/02 00:21:04;;;;;;;3.70;3.40;;;;;;;16.05;100.00;99669.06;5020302;28;21032;-85
2023/07/02 00:23:31;;;;;;;4.30;3.90;;;;;;;16.09;100.00;99680.25;5024112;28;20241;-85
2023/07/02 00:25:58;;;;;;;5.17;3.70;;;;;;;16.09;100.00;99664.44;5022975;28;20290;-83
2023/07/02 00:28:24;;;;;;;4.83;3.97;;;;;;;16.22;100.00;99646.22;5017069;28;20235;-84
2023/07/02 00:30:51;;;;;;;4.33;3.50;;;;;;;16.37;100.00;99640.09;5016367;28;20223;-84
2023/07/02 00:33:17;;;;;;;4.93;3.43;;;;;;;16.44;100.00;99654.59;5016907;28;20214;-85
2023/07/02 00:35:44;;;;;;;6.67;4.77;;;;;;;16.54;100.00;99667.28;5016235;28;20199;-84
2023/07/02 00:38:11;;;;;;;4.60;3.70;;;;;;;16.59;100.00;99673.13;5017748;28;20627;-84
2023/07/02 00:40:38;;;;;;;5.73;3.67;;;;;;;16.51;100.00;99688.50;5017417;28;20246;-86
2023/07/02 00:43:04;;;;;;;4.80;3.80;;;;;;;16.43;100.00;99699.47;5009489;28;20211;-86
2023/07/02 00:45:31;;;;;;;3.83;3.50;;;;;;;16.48;100.00;99697.44;5020578;28;20270;-86
2023/07/02 00:47:58;;;;;;;7.40;3.70;;;;;;;16.26;100.00;99705.66;4998168;28;20203;-84
2023/07/02 00:50:26;;;;;;;4.50;3.53;;;;;;;16.34;100.00;99702.63;5009626;28;20230;-83
2023/07/02 00:52:54;;;;;;;4.30;3.70;;;;;;;16.44;100.00;99702.03;5017570;28;20210;-85
2023/07/02 00:55:22;;;;;;;4.47;3.37;;;;;;;16.55;100.00;99713.75;5017294;28;20205;-84
2023/07/02 00:57:48;;;;;;;3.37;3.07;;;;;;;16.58;100.00;99718.84;5017902;28;20206;-84
2023/07/02 01:00:15;;;;;;;4.93;3.87;;;;;;;16.60;100.00;99738.06;5017781;28;20263;-84
2023/07/02 01:02:43;;;;;;;4.87;3.43;;;;;;;16.59;100.00;99739.00;5017271;28;20213;-85
2023/07/02 01:05:10;;;;;;;5.47;3.53;;;;;;;16.51;100.00;99739.44;5017732;28;20251;-84
2023/07/02 01:07:36;;;;;;;4.07;3.77;;;;;;;16.58;100.00;99743.41;5016845;28;20711;-84
2023/07/02 01:10:03;;;;;;;8.40;3.27;;;;;;;16.51;100.00;99731.53;5016825;28;20234;-85
2023/07/02 01:12:31;;;;;;;4.73;3.47;;;;;;;16.58;100.00;99732.03;5016436;28;20212;-85
2023/07/02 01:15:01;;;;;;;3.43;3.23;;;;;;;16.43;100.00;99731.06;5015675;28;20211;-84
2023/07/02 01:17:37;;;;;;;5.03;3.33;;;;;;;16.47;100.00;99730.84;5012405;28;20203;-83
2023/07/02 01:20:08;;;;;;;6.00;3.77;;;;;;;16.40;100.00;99726.00;4996823;28;20244;-85
2023/07/02 01:22:35;;;;;;;3.77;3.17;;;;;;;16.43;100.00;99731.06;5009417;28;20291;-85
2023/07/02 01:25:01;;;;;;;5.73;3.53;;;;;;;16.16;100.00;99712.38;5020443;28;20252;-85
2023/07/02 01:27:29;;;;;;;4.10;3.70;;;;;;;16.15;100.00;99703.59;5017018;28;20210;-85
2023/07/02 01:29:56;;;;;;;5.60;3.70;;;;;;;16.10;100.00;99687.22;5025149;28;20230;-85
2023/07/02 01:32:23;;;;;;;6.77;3.70;;;;;;;16.20;100.00;99680.50;5009469;28;20257;-85
2023/07/02 01:34:53;;;;;;;5.67;3.60;;;;;;;16.13;100.00;99670.41;5016881;28;20726;-85
2023/07/02 01:37:20;;;;;;;3.80;3.50;;;;;;;16.21;100.00;99671.69;5024068;28;20245;-84
2023/07/02 01:39:47;;;;;;;8.40;3.90;;;;;;;16.25;100.00;99678.50;5008679;28;20254;-85
2023/07/02 01:42:15;;;;;;;4.50;3.30;;;;;;;16.26;100.00;99705.66;5024675;28;20207;-85
2023/07/02 01:44:42;;;;;;;3.57;3.23;;;;;;;16.20;100.00;99730.56;5013723;28;20222;-85
2023/07/02 01:47:09;;;;;;;3.90;3.37;;;;;;;16.21;100.00;99742.78;5002551;28;20282;-85
2023/07/02 01:49:36;;;;;;;4.17;3.50;;;;;;;16.23;99.93;99754.09;4998008;28;20257;-85
2023/07/02 01:52:03;;;;;;;5.37;3.60;;;;;;;16.24;99.51;99768.09;5005383;28;20214;-85
2023/07/02 01:54:31;;;;;;;3.20;3.00;;;;;;;16.24;99.15;99776.00;5014189;28;20268;-83
2023/07/02 01:56:58;;;;;;;7.90;3.97;;;;;;;16.13;99.09;99768.66;5011326;28;20199;-82
2023/07/02 01:59:24;;;;;;;3.90;3.57;;;;;;;16.18;99.25;99773.69;5008746;28;20685;-83
2023/07/02 02:01:50;;;;;;;4.33;4.03;;;;;;;16.19;99.15;99768.34;5011465;28;20237;-84
2023/07/02 02:04:17;;;;;;;4.37;3.60;;;;;;;16.15;99.05;99784.38;5009998;28;20729;-85
2023/07/02 02:06:44;;;;;;;5.97;3.63;;;;;;;16.14;98.83;99780.91;5011041;28;20231;-84
2023/07/02 02:09:11;;;;;;;3.97;3.57;;;;;;;16.07;98.47;99800.56;5010356;28;20238;-84
2023/07/02 02:11:42;;;;;;;5.90;4.17;;;;;;;16.07;98.71;99779.53;5008600;28;20226;-83
2023/07/02 02:14:08;;;;;;;4.23;3.80;;;;;;;16.07;98.81;99776.88;5004353;28;20203;-84
2023/07/02 02:16:35;;;;;;;4.10;3.60;;;;;;;16.04;98.89;99774.44;5010468;28;20235;-83
2023/07/02 02:19:02;;;;;;;5.97;3.90;;;;;;;15.99;98.88;99777.28;5008720;28;20218;-83
2023/07/02 02:21:28;;;;;;;6.97;4.17;;;;;;;16.05;99.54;99762.94;5012624;28;20234;-84
2023/07/02 02:23:54;;;;;;;5.50;4.90;;;;;;;15.96;99.92;99756.41;5008448;28;20352;-84
2023/07/02 02:26:22;;;;;;;4.90;4.50;;;;;;;15.88;100.00;99754.16;5010442;28;20258;-84
2023/07/02 02:28:49;;;;;;;8.37;4.33;;;;;;;15.87;100.00;99720.03;5008436;28;20576;-83
2023/07/02 02:31:16;;;;;;;7.33;4.27;;;;;;;15.89;100.00;99713.72;5010522;28;20265;-83
2023/07/02 02:33:42;;;;;;;6.87;4.40;;;;;;;15.99;100.00;99718.53;5010369;28;20271;-84
2023/07/02 02:36:09;;;;;;;5.00;4.50;;;;;;;16.01;100.00;99716.66;5009488;28;20228;-84
2023/07/02 02:38:37;;;;;;;7.40;4.73;;;;;;;16.05;100.00;99716.44;5010147;28;20204;-84
2023/07/02 02:41:03;;;;;;;6.07;4.40;;;;;;;15.97;100.00;99718.59;5005373;28;20224;-83
2023/07/02 02:43:30;;;;;;;4.80;4.20;;;;;;;15.99;100.00;99718.53;5006377;28;20206;-84
2023/07/02 02:45:57;;;;;;;6.57;5.03;;;;;;;15.93;100.00;99710.97;5011466;28;20265;-83
2023/07/02 02:48:24;;;;;;;5.80;5.23;;;;;;;15.88;100.00;99701.53;5016033;28;20250;-84
2023/07/02 02:50:50;;;;;;;7.57;5.50;;;;;;;15.95;100.00;99703.81;5015882;28;20717;-83
2023/07/02 02:53:16;;;;;;;6.07;5.43;;;;;;;15.92;100.00;99688.22;5020831;28;20215;-82
2023/07/02 02:55:43;;;;;;;6.27;5.87;;;;;;;15.84;100.00;99678.09;5019740;28;20195;-84
2023/07/02 02:58:09;;;;;;;7.10;6.43;;;;;;;15.94;100.00;99667.94;5028095;28;20203;-84
2023/07/02 03:00:35;;;;;;;6.53;6.03;;;;;;;15.94;100.00;99654.75;5019163;28;20574;-86
2023/07/02 03:03:03;;;;;;;7.53;6.83;;;;;;;16.00;100.00;99659.69;5020693;28;20242;-86
2023/07/02 03:05:30;;;;;;;10.53;7.30;;;;;;;16.01;100.00;99656.13;5020652;28;20231;-86
2023/07/02 03:07:57;;;;;;;7.60;6.83;;;;;;;15.96;100.00;99652.91;5025904;28;20202;-83
2023/07/02 03:10:23;;;;;;;7.33;6.53;;;;;;;16.01;100.00;99656.94;4999934;28;20230;-85
2023/07/02 03:12:49;;;;;;;7.63;6.93;;;;;;;15.97;100.00;99660.69;5012948;28;20238;-83
2023/07/02 03:15:17;;;;;;;6.83;6.43;;;;;;;16.02;100.00;99652.56;5014717;28;20218;-84
2023/07/02 03:17:44;;;;;;;7.73;7.13;;;;;;;16.05;100.00;99666.41;5006807;28;20205;-83
2023/07/02 03:20:12;;;;;;;8.13;7.40;;;;;;;16.11;100.00;99659.94;5009316;28;20718;-83
2023/07/02 03:22:38;;;;;;;8.30;7.60;;;;;;;16.10;100.00;99658.25;5016125;28;20322;-83
2023/07/02 03:25:09;;;;;;;6.73;6.20;;;;;;;15.96;100.00;99639.75;5015679;28;20254;-83
2023/07/02 03:27:36;;;;;;;7.00;6.33;;;;;;;15.96;100.00;99637.09;5016204;28;20203;-83
2023/07/02 03:30:03;;;;;;;6.70;6.20;;;;;;;15.94;100.00;99616.13;5015394;28;20666;-84
2023/07/02 03:32:29;;;;;;;6.70;6.20;;;;;;;16.00;100.00;99617.56;5014279;28;20647;-83
2023/07/02 03:34:56;;;;;;;6.33;5.93;;;;;;;16.02;100.00;99619.19;5013688;28;20242;-83
2023/07/02 03:37:23;;;;;;;7.43;6.83;;;;;;;16.05;100.00;99621.66;5015414;28;20621;-83
2023/07/02 03:39:50;;;;;;;8.17;7.40;;;;;;;16.04;100.00;99627.00;5015610;28;20253;-84
2023/07/02 03:42:16;;;;;;;8.27;7.47;;;;;;;16.08;100.00;99624.09;5006797;28;20678;-83
2023/07/02 03:44:42;;;;;;;7.37;6.77;;;;;;;16.10;100.00;99631.09;5015018;28;20203;-83
2023/07/02 03:47:09;;;;;;;8.53;7.83;;;;;;;16.05;100.00;99640.09;5014988;28;20689;-83
2023/07/02 03:49:35;;;;;;;7.77;7.13;;;;;;;16.02;100.00;99631.50;5015375;28;20699;-83
2023/07/02 03:52:01;;;;;;;7.93;7.40;;;;;;;16.11;100.00;99635.41;5015147;28;20242;-83
2023/07/02 03:54:29;;;;;;;7.10;6.60;;;;;;;16.12;100.00;99643.22;5015150;28;20249;-82
2023/07/02 03:56:55;;;;;;;7.50;6.90;;;;;;;16.05;100.00;99642.72;5014500;28;20206;-83
2023/07/02 03:59:21;;;;;;;7.67;6.93;;;;;;;15.98;100.00;99649.25;5014113;28;20249;-83
2023/07/02 04:01:48;;;;;;;7.77;7.17;;;;;;;16.01;100.00;99638.53;5014831;28;20270;-84
2023/07/02 04:04:14;;;;;;;8.33;7.53;;;;;;;16.02;100.00;99631.50;5015367;28;20207;-83
2023/07/02 04:06:40;;;;;;;8.33;7.63;;;;;;;16.10;100.00;99634.56;5014938;28;20258;-84
2023/07/02 04:09:07;;;;;;;8.50;7.37;;;;;;;16.17;100.00;99635.91;5015306;28;20242;-82
2023/07/02 04:11:34;;;;;;;8.03;7.33;;;;;;;16.18;100.00;99642.88;5014685;28;20218;-83
2023/07/02 04:14:01;;;;;;;8.83;8.03;;;;;;;16.05;100.00;99636.59;5014807;28;20234;-83
2023/07/02 04:16:27;;;;;;;8.83;8.23;;;;;;;16.13;100.00;99637.00;5014070;28;20230;-84
2023/07/02 04:18:53;;;;;;;9.30;8.27;;;;;;;16.21;100.00;99642.72;5015287;28;20206;-83
2023/07/02 04:21:20;;;;;;;8.60;8.00;;;;;;;16.23;100.00;99640.88;5016280;28;20262;-83
2023/07/02 04:23:46;;;;;;;8.00;7.30;;;;;;;16.28;100.00;99645.88;5006582;28;20254;-84
2023/07/02 04:26:12;;;;;;;10.30;9.50;;;;;;;16.28;100.00;99635.34;4995057;28;20255;-83
2023/07/02 04:28:40;;;;;;;11.00;9.40;;;;;;;16.31;100.00;99656.22;4994511;28;20232;-83
2023/07/02 04:31:06;;;;;;;11.07;10.07;;;;;;;16.06;100.00;99656.72;4994892;28;20664;-83
2023/07/02 04:33:35;;;;;;;13.07;12.10;;;;;;;15.97;100.00;99660.69;4994858;28;20685;-83
2023/07/02 04:36:02;;;;;;;12.40;11.40;;;;;;;16.16;100.00;99665.81;4994680;28;20333;-84
2023/07/02 04:38:29;;;;;;;10.40;9.70;;;;;;;16.23;100.00;99659.28;5014125;28;20257;-83
2023/07/02 04:41:01;;;;;;;12.90;11.90;;;;;;;16.28;100.00;99657.25;5007893;28;20234;-83
2023/07/02 04:43:29;;;;;;;12.43;11.63;;;;;;;16.21;100.00;99660.28;5005589;28;20211;-84
2023/07/02 04:45:56;;;;;;;11.87;11.10;;;;;;;16.25;100.00;99654.78;5014134;28;20314;-84
2023/07/02 04:48:23;;;;;;;13.23;12.00;;;;;;;16.27;100.00;99649.41;5014497;28;20207;-84
2023/07/02 04:50:50;;;;;;;13.20;12.20;;;;;;;16.19;100.00;99647.19;5014069;28;20230;-84
2023/07/02 04:53:17;;;;;;;13.73;12.73;;;;;;;16.18;100.00;99652.56;5014101;28;20681;-83
2023/07/02 04:55:44;;;;;;;14.27;13.10;;;;;;;15.94;100.00;99668.75;5013718;28;20203;-83
2023/07/02 04:58:10;;;;;;;10.80;9.33;;;;;;;15.07;100.00;99708.28;5014031;28;20206;-80
2023/07/02 05:00:37;;;;;;;12.47;8.03;;;;;;;14.26;100.00;99708.53;5014781;28;20276;-79
2023/07/02 05:03:04;;;;;;;12.43;8.67;;;;;;;13.51;100.00;99644.56;5015500;28;20673;-80
2023/07/02 05:05:31;;;;;;;14.17;8.57;;;;;;;13.28;100.00;99602.75;5014301;28;20287;-80
2023/07/02 05:07:58;;;;;;;11.07;8.10;;;;;;;13.23;100.00;99560.16;5014271;28;20238;-79
2023/07/02 05:10:24;;;;;;;14.13;8.50;;;;;;;13.26;100.00;99536.41;5013598;28;20225;-80
2023/07/02 05:12:50;;;;;;;9.23;8.23;;;;;;;13.27;100.00;99541.59;5005569;28;20203;-80
2023/07/02 05:15:17;;;;;;;14.87;9.27;;;;;;;13.46;100.00;99541.66;5011088;28;20750;-82
2023/07/02 05:17:44;;;;;;;11.43;7.83;;;;;;;13.67;100.00;99541.59;5013974;28;20206;-79
2023/07/02 05:20:12;;;;;;;12.37;8.40;;;;;;;13.86;100.00;99552.09;5014634;28;20237;-80
2023/07/02 05:22:39;;;;;;;12.27;7.90;;;;;;;13.95;100.00;99567.38;5013468;28;20240;-78
2023/07/02 05:25:06;;;;;;;12.27;8.80;;;;;;;13.74;100.00;99603.34;5013484;28;20214;-80
2023/07/02 05:27:32;;;;;;;15.67;8.23;;;;;;;13.89;100.00;99615.78;5013407;28;20209;-80
2023/07/02 05:29:58;;;;;;;15.37;8.40;;;;;;;14.03;100.00;99620.38;5013818;28;20268;-83
2023/07/02 05:32:25;;;;;;;10.97;7.73;;;;;;;14.05;100.00;99631.66;5013877;28;20244;-80
2023/07/02 05:34:52;;;;;;;18.43;9.00;;;;;;;14.14;100.00;99635.63;5013751;28;20237;-79
2023/07/02 05:37:19;;;;;;;9.70;8.07;;;;;;;14.13;100.00;99643.56;5013781;28;20213;-81
2023/07/02 05:39:46;;;;;;;13.93;8.30;;;;;;;14.22;100.00;99664.13;5013907;28;20638;-81
2023/07/02 05:42:12;;;;;;;15.87;9.10;;;;;;;14.19;100.00;99659.91;5013179;28;20242;-80
2023/07/02 05:44:38;;;;;;;10.40;8.17;;;;;;;14.33;100.00;99663.63;5002620;28;20230;-82
2023/07/02 05:47:05;;;;;;;13.70;10.00;;;;;;;14.46;100.00;99670.84;5009150;28;20735;-82
2023/07/02 05:49:31;;;;;;;11.77;7.63;;;;;;;14.58;100.00;99682.59;5012928;28;20481;-80
2023/07/02 05:51:57;;;;;;;11.27;7.10;;;;;;;14.62;100.00;99691.19;5013698;28;20265;-82
2023/07/02 05:54:25;;;;;;;9.93;7.60;;;;;;;14.74;100.00;99682.69;5013574;28;20284;-81
2023/07/02 05:56:51;;;;;;;10.07;8.47;;;;;;;14.77;100.00;99708.84;5013553;28;20229;-82
2023/07/02 05:59:19;;;;;;;12.90;9.37;;;;;;;14.81;100.00;99712.19;5013442;28;20240;-82
2023/07/02 06:01:45;;;;;;;12.77;8.43;;;;;;;14.83;100.00;99707.69;5014997;28;20709;-81
2023/07/02 06:04:12;;;;;;;12.20;8.27;;;;;;;14.60;100.00;99700.91;5013748;28;20238;-82
2023/07/02 06:06:38;;;;;;;9.80;8.80;;;;;;;14.65;100.00;99683.16;5013517;28;20249;-81
2023/07/02 06:09:04;;;;;;;11.57;7.93;;;;;;;14.76;100.00;99674.75;5013517;28;20240;-82
2023/07/02 06:11:32;;;;;;;11.90;8.27;;;;;;;14.61;100.00;99666.69;5015273;28;20874;-84
2023/07/02 06:13:58;;;;;;;13.60;8.40;;;;;;;14.81;100.00;99663.09;5016368;28;20332;-85
2023/07/02 06:16:26;;;;;;;8.80;7.93;;;;;;;14.86;100.00;99676.00;5016043;28;20645;-85
2023/07/02 06:18:52;;;;;;;9.77;8.80;;;;;;;14.89;100.00;99681.97;5016524;28;20203;-82
2023/07/02 06:21:19;;;;;;;12.13;8.33;;;;;;;14.86;100.00;99686.50;5015336;28;20273;-82
2023/07/02 06:23:45;;;;;;;9.10;8.20;;;;;;;14.96;100.00;99685.13;5014567;28;20210;-84
2023/07/02 06:26:12;;;;;;;14.97;9.20;;;;;;;15.10;100.00;99676.56;5015101;28;20781;-83
2023/07/02 06:28:40;;;;;;;10.90;8.60;;;;;;;15.17;100.00;99685.00;5014996;28;20202;-83
2023/07/02 06:31:06;;;;;;;8.43;7.53;;;;;;;15.01;100.00;99698.91;5016264;28;20252;-83
2023/07/02 06:33:33;;;;;;;10.67;8.17;;;;;;;15.15;100.00;99702.63;5014548;28;20261;-83
2023/07/02 06:36:00;;;;;;;11.60;8.27;;;;;;;15.16;100.00;99694.66;4997934;28;20621;-83
2023/07/02 06:38:26;;;;;;;8.50;7.30;;;;;;;15.25;100.00;99714.38;4998122;28;20219;-83
2023/07/02 06:40:52;;;;;;;10.40;8.07;;;;;;;15.34;100.00;99731.47;4997044;28;20255;-84
2023/07/02 06:43:19;;;;;;;8.80;7.43;;;;;;;15.22;100.00;99754.84;5005796;28;20658;-83
2023/07/02 06:45:46;;;;;;;9.33;7.07;;;;;;;15.24;100.00;99752.13;5015784;28;20227;-83
2023/07/02 06:48:14;;;;;;;10.20;7.57;;;;;;;15.37;100.00;99744.47;5016412;28;20210;-83
2023/07/02 06:50:44;;;;;;;10.30;7.57;;;;;;;15.49;100.00;99739.44;5019206;28;20225;-85
2023/07/02 06:53:13;;;;;;;9.93;6.60;;;;;;;15.64;100.00;99748.34;5011376;28;20241;-86
2023/07/02 06:55:40;;;;;;;10.77;7.17;;;;;;;15.68;100.00;99788.53;5015886;28;20212;-84
2023/07/02 06:58:07;;;;;;;10.73;7.90;;;;;;;15.82;100.00;99814.16;5015454;28;20234;-85
2023/07/02 07:00:35;;;;;;;8.77;7.10;;;;;;;15.95;100.00;99827.53;5012484;28;20293;-86
2023/07/02 07:03:03;;;;;;;8.93;6.93;;;;;;;15.96;100.00;99858.22;5015109;28;20635;-88
2023/07/02 07:05:30;;;;;;;13.60;6.77;;;;;;;15.96;100.00;99871.38;5013804;28;20213;-85
2023/07/02 07:07:56;;;;;;;11.37;7.37;;;;;;;15.95;100.00;99906.50;5021754;28;20198;-87
2023/07/02 07:10:23;;;;;;;8.67;7.07;;;;;;;16.04;100.00;99898.16;5007989;28;20226;-87
2023/07/02 07:12:50;;;;;;;8.13;7.30;;;;;;;16.09;100.00;99885.59;5003859;28;20224;-86
2023/07/02 07:15:20;;;;;;;10.50;6.70;;;;;;;16.13;100.00;99897.69;5012963;28;20206;-86
2023/07/02 07:17:47;;;;;;;11.67;6.97;;;;;;;16.31;100.00;99900.31;5010745;28;20196;-86
2023/07/02 07:20:14;;;;;;;16.20;8.30;;;;;;;16.33;100.00;99919.53;5004696;28;20240;-85
2023/07/02 07:22:41;;;;;;;9.30;7.10;;;;;;;16.27;96.40;99989.16;5012812;28;20234;-84
2023/07/02 07:25:09;;;;;;;8.87;6.40;;;;;;;16.30;95.82;100009.25;4995820;28;20588;-85
2023/07/02 07:27:35;;;;;;;9.67;6.70;;;;;;;16.44;96.50;100012.88;5012584;28;20286;-86
2023/07/02 07:30:03;;;;;;;7.47;6.33;;;;;;;16.44;95.10;100027.84;4996783;28;20247;-86
2023/07/02 07:32:29;;;;;;;10.10;6.80;;;;;;;16.44;93.02;100089.28;4999837;28;20748;-85
2023/07/02 07:34:55;;;;;;;10.77;7.13;;;;;;;16.58;94.05;100069.31;5022263;28;20701;-84
2023/07/02 07:37:25;;;;;;;11.17;6.40;;;;;;;16.58;91.28;100119.38;5016639;28;20716;-85
2023/07/02 07:39:52;;;;;;;10.27;6.53;;;;;;;16.63;91.27;100115.59;5023930;28;20226;-86
2023/07/02 07:42:18;;;;;;;8.33;6.17;;;;;;;16.71;88.25;100160.03;5017518;28;20215;-85
2023/07/02 07:44:45;;;;;;;16.97;6.00;;;;;;;16.59;84.29;100272.16;5021020;28;20694;-88
2023/07/02 07:47:11;;;;;;;8.53;6.07;;;;;;;16.55;82.99;100318.03;5028502;28;20237;-86
2023/07/02 07:49:38;;;;;;;12.13;6.70;;;;;;;16.62;81.46;100372.13;5025618;28;20198;-86
2023/07/02 07:52:06;;;;;;;9.57;5.77;;;;;;;16.62;83.49;100337.88;5033114;28;20206;-86
2023/07/02 07:54:35;;;;;;;10.23;6.70;;;;;;;16.61;77.06;100461.81;5039356;28;20206;-85
2023/07/02 07:57:01;;;;;;;12.07;6.73;;;;;;;16.67;76.26;100506.38;5038577;28;20226;-86
2023/07/02 07:59:28;;;;;;;11.23;6.47;;;;;;;16.76;78.30;100482.22;5040001;28;20206;-87
2023/07/02 08:01:54;;;;;;;7.03;5.87;;;;;;;16.75;75.33;100548.19;5041958;28;20210;-88
2023/07/02 08:04:20;;;;;;;8.83;6.40;;;;;;;16.78;74.43;100579.72;5020823;28;20673;-86
2023/07/02 08:06:47;;;;;;;10.10;6.83;;;;;;;16.78;70.38;100658.78;5010611;28;20227;-85
2023/07/02 08:09:13;;;;;;;10.77;6.47;;;;;;;16.79;70.92;100686.91;5020233;28;20199;-85
2023/07/02 08:11:41;;;;;;;9.77;6.43;;;;;;;16.94;73.58;100659.06;5017098;28;20326;-83
2023/07/02 08:14:07;;;;;;;11.73;7.17;;;;;;;16.84;72.04;100635.69;5026275;28;20215;-84
2023/07/02 08:16:34;;;;;;;10.77;6.23;;;;;;;17.03;74.66;100593.59;5024681;28;20192;-84
2023/07/02 08:19:01;;;;;;;11.03;6.27;;;;;;;17.16;74.25;100561.41;5015858;28;20574;-83
2023/07/02 08:21:28;;;;;;;14.97;7.10;;;;;;;17.14;74.19;100542.16;5007258;28;20231;-84
2023/07/02 08:23:54;;;;;;;11.47;6.97;;;;;;;17.12;72.92;100597.59;5007552;28;20201;-82
2023/07/02 08:26:21;;;;;;;10.03;7.67;;;;;;;16.98;73.21;100586.78;5006325;28;20298;-85
2023/07/02 08:28:49;;;;;;;12.40;6.77;;;;;;;16.88;69.49;100650.47;5005672;28;20215;-86
2023/07/02 08:31:17;;;;;;;10.53;6.47;;;;;;;16.70;68.55;100698.66;5008336;28;20285;-84
2023/07/02 08:33:43;;;;;;;7.23;6.47;;;;;;;16.77;70.20;100673.75;5007779;28;20203;-85
2023/07/02 08:36:10;;;;;;;10.07;6.77;;;;;;;16.78;70.10;100664.91;5007219;28;20203;-86
2023/07/02 08:38:39;;;;;;;13.10;6.23;;;;;;;16.62;69.93;100669.97;5005043;28;20737;-85
2023/07/02 08:41:05;;;;;;;9.53;6.20;;;;;;;16.53;69.71;100678.25;5004666;28;20305;-83
2023/07/02 08:43:32;;;;;;;11.07;7.03;;;;;;;16.56;72.47;100632.47;5006288;28;20246;-84
2023/07/02 08:46:00;;;;;;;7.70;6.83;;;;;;;16.60;71.16;100628.78;5005214;28;20677;-84
2023/07/02 08:48:29;;;;;;;10.17;6.93;;;;;;;16.67;71.02;100612.66;5004787;28;20251;-83
2023/07/02 08:50:55;;;;;;;11.67;6.93;;;;;;;16.58;71.52;100609.53;5005791;28;20234;-85
2023/07/02 08:53:25;;;;;;;9.97;7.07;;;;;;;16.66;71.33;100616.19;5005637;28;20199;-83
2023/07/02 08:55:51;;;;;;;14.07;7.73;;;;;;;16.46;71.53;100590.66;5006912;28;20203;-84
2023/07/02 08:58:18;;;;;;;15.87;7.50;;;;;;;16.53;72.11;100583.38;5004791;28;20203;-82
2023/07/02 09:01:10;;;;;;;11.73;6.73;;;;;;;16.75;71.20;100580.72;5006833;28;20223;-84
2023/07/02 09:03:38;;;;;;;11.10;7.03;;;;;;;16.87;68.49;100617.13;5007372;28;20210;-81
2023/07/02 09:06:04;;;;;;;10.07;6.87;;;;;;;16.90;67.78;100675.94;5005759;28;20203;-82
2023/07/02 09:08:36;;;;;;;12.87;6.80;;;;;;;16.97;68.96;100680.03;5005118;28;20237;-82
2023/07/02 09:11:08;;;;;;;10.57;6.97;;;;;;;16.97;71.33;100640.47;5009524;28;20246;-82
2023/07/02 09:13:43;;;;;;;12.43;7.63;;;;;;;16.90;69.23;100644.28;5004506;28;20203;-82
2023/07/02 09:16:21;;;;;;;12.10;6.50;;;;;;;17.09;70.26;100624.13;5003511;28;20207;-82
2023/07/02 09:18:57;;;;;;;14.03;6.33;;;;;;;17.12;71.42;100573.84;5004219;28;20232;-83
2023/07/02 09:21:23;;;;;;;10.20;6.77;;;;;;;17.28;70.86;100579.31;4999031;28;20730;-85
2023/07/02 09:23:49;;;;;;;10.30;7.00;;;;;;;17.25;66.07;100666.53;4996048;28;20198;-83
2023/07/02 09:26:20;;;;;;;10.83;6.77;;;;;;;17.56;66.40;100729.41;4994904;28;20764;-82
2023/07/02 09:28:46;;;;;;;14.47;8.00;;;;;;;17.94;67.75;100705.75;4995589;28;20254;-82
2023/07/02 09:31:14;;;;;;;7.87;6.00;;;;;;;17.91;60.68;100830.00;5009685;28;20256;-83
2023/07/02 09:33:41;;;;;;;9.30;6.73;;;;;;;17.85;62.04;100901.59;5009357;28;20223;-81
2023/07/02 09:36:07;;;;;;;8.43;6.37;;;;;;;17.64;59.21;100935.84;5005973;28;20232;-82
2023/07/02 09:38:34;;;;;;;8.70;6.33;;;;;;;17.69;59.62;100990.25;5004581;28;20548;-85
2023/07/02 09:41:00;;;;;;;9.00;6.60;;;;;;;17.88;60.17;101007.13;5004361;28;20220;-82
2023/07/02 09:43:27;;;;;;;11.73;6.73;;;;;;;17.75;59.67;101021.69;5004123;28;20237;-83
2023/07/02 09:45:55;;;;;;;10.33;6.93;;;;;;;17.82;60.59;100987.06;5003479;28;20223;-82
2023/07/02 09:48:26;;;;;;;10.60;6.63;;;;;;;17.84;59.42;100990.53;5002866;28;20696;-82
2023/07/02 09:50:52;;;;;;;10.80;6.33;;;;;;;17.97;59.29;100977.66;5004574;28;20715;-83
2023/07/02 09:53:19;;;;;;;12.70;6.23;;;;;;;17.95;58.17;100987.44;5003508;28;20196;-82
2023/07/02 09:55:45;;;;;;;8.30;6.70;;;;;;;17.99;59.73;100990.81;5003069;28;20196;-81
2023/07/02 09:58:12;;;;;;;8.03;6.33;;;;;;;18.09;58.21;101039.72;5001847;28;20193;-82
2023/07/02 10:00:40;;;;;;;11.47;7.13;;;;;;;18.02;57.69;101014.47;5001311;28;20225;-82
2023/07/02 10:03:06;;;;;;;7.33;6.10;;;;;;;18.17;58.25;101029.69;5006369;28;20211;-83
2023/07/02 10:05:34;;;;;;;7.23;5.60;;;;;;;18.21;56.50;101033.06;5003145;28;20202;-80
2023/07/02 10:08:13;;;;;;;12.47;7.07;;;;;;;18.12;56.35;101087.16;5001179;28;20252;-83
2023/07/02 10:10:39;;;;;;;9.00;6.17;;;;;;;17.94;55.36;101098.44;5002688;28;20323;-84
2023/07/02 10:13:06;;;;;;;9.70;6.50;;;;;;;17.94;57.50;101072.91;5000548;28;20239;-82
2023/07/02 10:15:37;;;;;;;8.87;6.87;;;;;;;18.16;56.17;101054.41;5001982;28;20615;-82
2023/07/02 10:18:04;;;;;;;8.57;6.20;;;;;;;18.22;56.74;101070.00;5003389;28;20581;-82
2023/07/02 10:20:36;;;;;;;8.27;5.90;;;;;;;18.30;54.89;101076.78;5001963;28;20247;-81
2023/07/02 10:23:04;;;;;;;13.63;6.23;;;;;;;18.41;53.78;101119.47;5010683;28;20663;-81
2023/07/02 10:25:31;;;;;;;9.70;5.80;;;;;;;18.56;53.96;101160.28;5011266;28;20585;-85
2023/07/02 10:27:59;;;;;;;8.57;6.30;;;;;;;18.26;54.76;101160.59;5007494;28;20749;-82
2023/07/02 10:30:37;;;;;;;8.30;5.73;;;;;;;18.17;56.29;101176.81;5004095;28;20231;-84
2023/07/02 10:33:11;;;;;;;10.63;6.57;;;;;;;17.99;55.37;101134.31;5007291;28;20883;-84
2023/07/02 10:35:41;;;;;;;15.03;6.77;;;;;;;17.54;55.95;101148.31;5004531;28;20242;-84
2023/07/02 10:38:07;;;;;;;7.60;5.87;;;;;;;17.59;58.05;101104.13;5003550;28;20237;-82
2023/07/02 10:40:34;;;;;;;8.63;6.60;;;;;;;17.68;58.46;101039.56;5001946;28;20245;-82
2023/07/02 10:43:01;;;;;;;9.63;6.13;;;;;;;17.95;58.08;101019.13;5001862;28;20202;-83
2023/07/02 10:45:33;;;;;;;11.93;6.10;;;;;;;18.19;57.72;101009.34;5003137;28;20201;-83
2023/07/02 10:48:02;;;;;;;8.20;5.77;;;;;;;18.37;56.07;101062.34;4999787;28;20922;-83
2023/07/02 10:50:28;;;;;;;9.13;6.13;;;;;;;18.55;54.01;101122.44;5002945;28;20217;-83
2023/07/02 10:52:56;;;;;;;12.83;6.73;;;;;;;18.72;53.05;101179.88;5002695;28;20211;-84
2023/07/02 10:55:24;;;;;;;10.20;5.93;;;;;;;18.74;52.15;101238.03;5002514;28;20237;-80
2023/07/02 10:58:04;;;;;;;8.07;5.93;;;;;;;18.92;52.38;101261.13;5002711;28;20232;-82
2023/07/02 11:00:30;;;;;;;8.30;5.43;;;;;;;19.18;53.40;101261.81;5005407;28;20264;-82
2023/07/02 11:02:57;;;;;;;9.20;6.07;;;;;;;19.30;51.85;101241.91;5006418;28;20722;-81
2023/07/02 11:05:23;;;;;;;6.60;5.67;;;;;;;19.01;50.98;101304.88;5005747;28;20549;-83
2023/07/02 11:07:56;;;;;;;7.47;5.63;;;;;;;18.83;51.20;101325.84;5007551;28;20744;-84
2023/07/02 11:10:25;;;;;;;7.50;5.97;;;;;;;19.00;51.59;101306.63;5008643;28;20682;-83
2023/07/02 11:12:52;;;;;;;8.33;5.50;;;;;;;19.31;54.91;101230.41;5008405;28;20287;-85
2023/07/02 11:15:19;;;;;;;11.30;5.70;;;;;;;19.49;52.24;101219.03;5004936;28;20214;-84
2023/07/02 11:17:46;;;;;;;9.43;5.77;;;;;;;19.56;52.85;101254.91;4997081;28;20210;-84
2023/07/02 11:20:14;;;;;;;6.27;5.13;;;;;;;19.48;51.44;101264.94;5008269;28;20238;-83
2023/07/02 11:22:43;;;;;;;7.47;5.33;;;;;;;19.34;50.18;101312.34;5011418;28;20206;-85